sensor_id;sensor_type;location;lat;lon;timestamp;P1;durP1;ratioP1;P2;durP2;ratioP2
20669;SDS011;10494;50.868;4.180;2023-03-13T00:00:16;17.27;;;4.78;;
20669;SDS011;10494;50.868;4.180;2023-03-13T00:02:43;20.20;;;4.63;;
20669;SDS011;10494;50.868;4.180;2023-03-13T00:05:09;19.13;;;4.78;;
20669;SDS011;10494;50.868;4.180;2023-03-13T00:07:38;25.65;;;4.45;;
20669;SDS011;10494;50.868;4.180;2023-03-13T00:10:04;15.23;;;5.00;;
20669;SDS011;10494;50.868;4.180;2023-03-13T00:12:30;19.55;;;4.90;;
20669;SDS011;10494;50.868;4.180;2023-03-13T00:14:56;15.93;;;4.70;;
20669;SDS011;10494;50.868;4.180;2023-03-13T00:17:21;15.80;;;4.72;;
20669;SDS011;10494;50.868;4.180;2023-03-13T00:19:47;22.15;;;4.57;;
20669;SDS011;10494;50.868;4.180;2023-03-13T00:22:13;21.95;;;4.82;;
20669;SDS011;10494;50.868;4.180;2023-03-13T00:24:39;16.17;;;4.68;;
20669;SDS011;10494;50.868;4.180;2023-03-13T00:27:05;17.00;;;4.60;;
20669;SDS011;10494;50.868;4.180;2023-03-13T00:29:31;9.07;;;3.50;;
20669;SDS011;10494;50.868;4.180;2023-03-13T00:31:58;11.68;;;4.10;;
20669;SDS011;10494;50.868;4.180;2023-03-13T00:34:24;10.70;;;4.00;;
20669;SDS011;10494;50.868;4.180;2023-03-13T00:36:53;10.68;;;4.15;;
20669;SDS011;10494;50.868;4.180;2023-03-13T00:39:20;11.57;;;4.35;;
20669;SDS011;10494;50.868;4.180;2023-03-13T00:41:45;14.77;;;4.97;;
20669;SDS011;10494;50.868;4.180;2023-03-13T00:44:11;9.07;;;3.85;;
20669;SDS011;10494;50.868;4.180;2023-03-13T00:46:37;13.40;;;4.25;;
20669;SDS011;10494;50.868;4.180;2023-03-13T00:49:03;11.32;;;3.95;;
20669;SDS011;10494;50.868;4.180;2023-03-13T00:51:28;18.63;;;5.28;;
20669;SDS011;10494;50.868;4.180;2023-03-13T00:53:55;17.25;;;5.65;;
20669;SDS011;10494;50.868;4.180;2023-03-13T00:56:24;10.63;;;5.35;;
20669;SDS011;10494;50.868;4.180;2023-03-13T00:58:50;15.02;;;5.15;;
20669;SDS011;10494;50.868;4.180;2023-03-13T01:03:46;13.35;;;5.88;;
20669;SDS011;10494;50.868;4.180;2023-03-13T01:06:14;12.32;;;5.82;;
20669;SDS011;10494;50.868;4.180;2023-03-13T01:08:42;13.38;;;5.85;;
20669;SDS011;10494;50.868;4.180;2023-03-13T01:11:18;10.55;;;5.57;;
20669;SDS011;10494;50.868;4.180;2023-03-13T01:13:45;14.95;;;5.78;;
20669;SDS011;10494;50.868;4.180;2023-03-13T01:16:13;15.48;;;6.07;;
20669;SDS011;10494;50.868;4.180;2023-03-13T01:18:43;14.18;;;6.20;;
20669;SDS011;10494;50.868;4.180;2023-03-13T01:21:14;13.93;;;6.38;;
20669;SDS011;10494;50.868;4.180;2023-03-13T01:23:40;12.02;;;5.78;;
20669;SDS011;10494;50.868;4.180;2023-03-13T01:26:06;13.00;;;6.38;;
20669;SDS011;10494;50.868;4.180;2023-03-13T01:28:33;12.40;;;6.45;;
20669;SDS011;10494;50.868;4.180;2023-03-13T01:31:00;15.75;;;5.43;;
20669;SDS011;10494;50.868;4.180;2023-03-13T01:33:33;12.45;;;5.82;;
20669;SDS011;10494;50.868;4.180;2023-03-13T01:35:59;10.82;;;5.35;;
20669;SDS011;10494;50.868;4.180;2023-03-13T01:38:26;15.15;;;5.80;;
20669;SDS011;10494;50.868;4.180;2023-03-13T01:40:51;11.57;;;5.35;;
20669;SDS011;10494;50.868;4.180;2023-03-13T01:45:51;13.25;;;5.65;;
20669;SDS011;10494;50.868;4.180;2023-03-13T01:48:42;10.52;;;5.68;;
20669;SDS011;10494;50.868;4.180;2023-03-13T01:51:13;11.48;;;5.68;;
20669;SDS011;10494;50.868;4.180;2023-03-13T01:53:45;10.27;;;5.13;;
20669;SDS011;10494;50.868;4.180;2023-03-13T01:56:18;10.43;;;5.25;;
20669;SDS011;10494;50.868;4.180;2023-03-13T01:58:47;12.00;;;4.90;;
20669;SDS011;10494;50.868;4.180;2023-03-13T02:01:14;11.40;;;5.22;;
20669;SDS011;10494;50.868;4.180;2023-03-13T02:03:41;12.10;;;5.32;;
20669;SDS011;10494;50.868;4.180;2023-03-13T02:06:07;9.90;;;4.57;;
20669;SDS011;10494;50.868;4.180;2023-03-13T02:08:39;6.78;;;4.60;;
20669;SDS011;10494;50.868;4.180;2023-03-13T02:11:17;8.07;;;4.40;;
20669;SDS011;10494;50.868;4.180;2023-03-13T02:13:55;9.93;;;5.20;;
20669;SDS011;10494;50.868;4.180;2023-03-13T02:16:22;8.95;;;4.53;;
20669;SDS011;10494;50.868;4.180;2023-03-13T02:18:48;10.85;;;5.10;;
20669;SDS011;10494;50.868;4.180;2023-03-13T02:21:32;10.30;;;5.13;;
20669;SDS011;10494;50.868;4.180;2023-03-13T02:27:24;9.45;;;5.00;;
20669;SDS011;10494;50.868;4.180;2023-03-13T02:29:50;7.07;;;4.82;;
20669;SDS011;10494;50.868;4.180;2023-03-13T02:32:16;7.95;;;4.88;;
20669;SDS011;10494;50.868;4.180;2023-03-13T02:34:42;10.10;;;5.03;;
20669;SDS011;10494;50.868;4.180;2023-03-13T02:37:10;7.82;;;4.35;;
20669;SDS011;10494;50.868;4.180;2023-03-13T02:39:38;7.95;;;4.95;;
20669;SDS011;10494;50.868;4.180;2023-03-13T02:42:09;6.95;;;4.65;;
20669;SDS011;10494;50.868;4.180;2023-03-13T02:44:39;8.50;;;5.10;;
20669;SDS011;10494;50.868;4.180;2023-03-13T02:47:08;8.20;;;5.15;;
20669;SDS011;10494;50.868;4.180;2023-03-13T02:49:35;11.05;;;4.47;;
20669;SDS011;10494;50.868;4.180;2023-03-13T02:52:11;7.88;;;5.20;;
20669;SDS011;10494;50.868;4.180;2023-03-13T02:54:44;10.73;;;4.70;;
20669;SDS011;10494;50.868;4.180;2023-03-13T02:57:12;7.88;;;4.65;;
20669;SDS011;10494;50.868;4.180;2023-03-13T02:59:38;8.27;;;4.30;;
20669;SDS011;10494;50.868;4.180;2023-03-13T03:02:04;7.60;;;4.22;;
20669;SDS011;10494;50.868;4.180;2023-03-13T03:04:29;8.15;;;4.78;;
20669;SDS011;10494;50.868;4.180;2023-03-13T03:06:55;6.47;;;4.00;;
20669;SDS011;10494;50.868;4.180;2023-03-13T03:09:21;8.48;;;4.32;;
20669;SDS011;10494;50.868;4.180;2023-03-13T03:11:47;7.80;;;4.13;;
20669;SDS011;10494;50.868;4.180;2023-03-13T03:14:13;7.68;;;4.38;;
20669;SDS011;10494;50.868;4.180;2023-03-13T03:16:40;6.82;;;4.20;;
20669;SDS011;10494;50.868;4.180;2023-03-13T03:19:06;6.38;;;4.38;;
20669;SDS011;10494;50.868;4.180;2023-03-13T03:21:32;5.22;;;3.72;;
20669;SDS011;10494;50.868;4.180;2023-03-13T03:23:58;9.05;;;4.35;;
20669;SDS011;10494;50.868;4.180;2023-03-13T03:26:24;6.80;;;4.03;;
20669;SDS011;10494;50.868;4.180;2023-03-13T03:28:50;6.90;;;3.85;;
20669;SDS011;10494;50.868;4.180;2023-03-13T03:31:16;10.50;;;3.80;;
20669;SDS011;10494;50.868;4.180;2023-03-13T03:33:42;6.97;;;3.85;;
20669;SDS011;10494;50.868;4.180;2023-03-13T03:36:10;4.90;;;3.97;;
20669;SDS011;10494;50.868;4.180;2023-03-13T03:38:37;6.68;;;3.63;;
20669;SDS011;10494;50.868;4.180;2023-03-13T03:41:04;7.05;;;3.58;;
20669;SDS011;10494;50.868;4.180;2023-03-13T03:43:33;8.07;;;3.67;;
20669;SDS011;10494;50.868;4.180;2023-03-13T03:46:00;6.95;;;3.75;;
20669;SDS011;10494;50.868;4.180;2023-03-13T03:48:25;6.95;;;3.22;;
20669;SDS011;10494;50.868;4.180;2023-03-13T03:50:51;7.32;;;3.50;;
20669;SDS011;10494;50.868;4.180;2023-03-13T03:53:17;9.05;;;3.63;;
20669;SDS011;10494;50.868;4.180;2023-03-13T03:55:44;7.95;;;3.38;;
20669;SDS011;10494;50.868;4.180;2023-03-13T03:58:10;8.45;;;3.78;;
20669;SDS011;10494;50.868;4.180;2023-03-13T04:00:35;7.10;;;3.60;;
20669;SDS011;10494;50.868;4.180;2023-03-13T04:03:01;8.25;;;3.67;;
20669;SDS011;10494;50.868;4.180;2023-03-13T04:05:26;6.07;;;3.53;;
20669;SDS011;10494;50.868;4.180;2023-03-13T04:07:52;6.30;;;3.30;;
20669;SDS011;10494;50.868;4.180;2023-03-13T04:10:18;8.80;;;3.55;;
20669;SDS011;10494;50.868;4.180;2023-03-13T04:12:44;7.70;;;3.40;;
20669;SDS011;10494;50.868;4.180;2023-03-13T04:15:10;9.07;;;3.28;;
20669;SDS011;10494;50.868;4.180;2023-03-13T04:17:36;8.32;;;3.50;;
20669;SDS011;10494;50.868;4.180;2023-03-13T04:20:01;7.15;;;3.50;;
20669;SDS011;10494;50.868;4.180;2023-03-13T04:22:28;8.20;;;3.13;;
20669;SDS011;10494;50.868;4.180;2023-03-13T04:24:54;11.13;;;3.50;;
20669;SDS011;10494;50.868;4.180;2023-03-13T04:27:20;4.53;;;2.92;;
20669;SDS011;10494;50.868;4.180;2023-03-13T04:29:45;7.93;;;3.70;;
20669;SDS011;10494;50.868;4.180;2023-03-13T04:32:11;5.28;;;3.15;;
20669;SDS011;10494;50.868;4.180;2023-03-13T04:34:37;5.90;;;3.10;;
20669;SDS011;10494;50.868;4.180;2023-03-13T04:37:02;10.15;;;3.05;;
20669;SDS011;10494;50.868;4.180;2023-03-13T04:39:28;5.65;;;3.15;;
20669;SDS011;10494;50.868;4.180;2023-03-13T04:41:54;8.75;;;3.10;;
20669;SDS011;10494;50.868;4.180;2023-03-13T04:44:20;5.57;;;3.10;;
20669;SDS011;10494;50.868;4.180;2023-03-13T04:46:46;6.45;;;3.20;;
20669;SDS011;10494;50.868;4.180;2023-03-13T04:49:12;6.57;;;2.85;;
20669;SDS011;10494;50.868;4.180;2023-03-13T04:51:38;5.88;;;2.70;;
20669;SDS011;10494;50.868;4.180;2023-03-13T04:54:05;10.77;;;3.58;;
20669;SDS011;10494;50.868;4.180;2023-03-13T04:56:30;7.10;;;2.80;;
20669;SDS011;10494;50.868;4.180;2023-03-13T04:58:56;7.43;;;3.15;;
20669;SDS011;10494;50.868;4.180;2023-03-13T05:01:22;13.80;;;3.42;;
20669;SDS011;10494;50.868;4.180;2023-03-13T05:03:47;8.70;;;2.88;;
20669;SDS011;10494;50.868;4.180;2023-03-13T05:06:13;10.38;;;3.50;;
20669;SDS011;10494;50.868;4.180;2023-03-13T05:08:38;6.40;;;2.92;;
20669;SDS011;10494;50.868;4.180;2023-03-13T05:11:04;6.78;;;3.20;;
20669;SDS011;10494;50.868;4.180;2023-03-13T05:13:30;9.40;;;3.05;;
20669;SDS011;10494;50.868;4.180;2023-03-13T05:15:57;7.95;;;3.75;;
20669;SDS011;10494;50.868;4.180;2023-03-13T05:18:23;9.60;;;3.72;;
20669;SDS011;10494;50.868;4.180;2023-03-13T05:20:48;7.47;;;3.40;;
20669;SDS011;10494;50.868;4.180;2023-03-13T05:23:14;8.43;;;3.03;;
20669;SDS011;10494;50.868;4.180;2023-03-13T05:25:40;10.23;;;2.90;;
20669;SDS011;10494;50.868;4.180;2023-03-13T05:28:06;8.85;;;3.00;;
20669;SDS011;10494;50.868;4.180;2023-03-13T05:30:32;7.32;;;3.20;;
20669;SDS011;10494;50.868;4.180;2023-03-13T05:32:57;9.27;;;2.95;;
20669;SDS011;10494;50.868;4.180;2023-03-13T05:35:23;9.82;;;3.25;;
20669;SDS011;10494;50.868;4.180;2023-03-13T05:37:48;11.45;;;3.22;;
20669;SDS011;10494;50.868;4.180;2023-03-13T05:40:14;9.68;;;3.88;;
20669;SDS011;10494;50.868;4.180;2023-03-13T05:42:40;10.95;;;3.28;;
20669;SDS011;10494;50.868;4.180;2023-03-13T05:45:05;8.38;;;3.17;;
20669;SDS011;10494;50.868;4.180;2023-03-13T05:47:33;9.13;;;3.38;;
20669;SDS011;10494;50.868;4.180;2023-03-13T05:49:59;8.25;;;3.58;;
20669;SDS011;10494;50.868;4.180;2023-03-13T05:52:24;10.48;;;3.22;;
20669;SDS011;10494;50.868;4.180;2023-03-13T05:54:50;11.65;;;3.10;;
20669;SDS011;10494;50.868;4.180;2023-03-13T05:57:16;10.45;;;3.58;;
20669;SDS011;10494;50.868;4.180;2023-03-13T05:59:41;15.63;;;3.25;;
20669;SDS011;10494;50.868;4.180;2023-03-13T06:02:07;8.35;;;3.10;;
20669;SDS011;10494;50.868;4.180;2023-03-13T06:04:32;9.65;;;3.33;;
20669;SDS011;10494;50.868;4.180;2023-03-13T06:06:59;10.75;;;3.53;;
20669;SDS011;10494;50.868;4.180;2023-03-13T06:09:25;10.38;;;3.20;;
20669;SDS011;10494;50.868;4.180;2023-03-13T06:11:50;13.85;;;3.60;;
20669;SDS011;10494;50.868;4.180;2023-03-13T06:14:16;12.95;;;3.28;;
20669;SDS011;10494;50.868;4.180;2023-03-13T06:16:41;8.80;;;2.85;;
20669;SDS011;10494;50.868;4.180;2023-03-13T06:19:07;12.38;;;3.20;;
20669;SDS011;10494;50.868;4.180;2023-03-13T06:21:33;7.07;;;3.25;;
20669;SDS011;10494;50.868;4.180;2023-03-13T06:23:58;14.70;;;3.03;;
20669;SDS011;10494;50.868;4.180;2023-03-13T06:26:24;14.85;;;3.28;;
20669;SDS011;10494;50.868;4.180;2023-03-13T06:28:50;11.48;;;3.33;;
20669;SDS011;10494;50.868;4.180;2023-03-13T06:31:16;9.65;;;2.97;;
20669;SDS011;10494;50.868;4.180;2023-03-13T06:33:42;10.60;;;3.75;;
20669;SDS011;10494;50.868;4.180;2023-03-13T06:36:07;8.20;;;3.15;;
20669;SDS011;10494;50.868;4.180;2023-03-13T06:38:33;13.65;;;3.38;;
20669;SDS011;10494;50.868;4.180;2023-03-13T06:40:59;10.57;;;2.90;;
20669;SDS011;10494;50.868;4.180;2023-03-13T06:43:25;12.23;;;3.17;;
20669;SDS011;10494;50.868;4.180;2023-03-13T06:45:50;10.75;;;3.35;;
20669;SDS011;10494;50.868;4.180;2023-03-13T06:48:16;11.13;;;2.80;;
20669;SDS011;10494;50.868;4.180;2023-03-13T06:50:42;9.27;;;3.38;;
20669;SDS011;10494;50.868;4.180;2023-03-13T06:53:13;11.68;;;3.33;;
20669;SDS011;10494;50.868;4.180;2023-03-13T06:55:40;8.07;;;3.30;;
20669;SDS011;10494;50.868;4.180;2023-03-13T06:58:06;14.18;;;3.75;;
20669;SDS011;10494;50.868;4.180;2023-03-13T07:00:32;16.58;;;3.40;;
20669;SDS011;10494;50.868;4.180;2023-03-13T07:02:58;9.45;;;3.28;;
20669;SDS011;10494;50.868;4.180;2023-03-13T07:05:24;8.95;;;3.45;;
20669;SDS011;10494;50.868;4.180;2023-03-13T07:07:49;12.98;;;3.63;;
20669;SDS011;10494;50.868;4.180;2023-03-13T07:10:15;9.38;;;3.20;;
20669;SDS011;10494;50.868;4.180;2023-03-13T07:12:41;9.68;;;3.30;;
20669;SDS011;10494;50.868;4.180;2023-03-13T07:15:07;10.90;;;3.17;;
20669;SDS011;10494;50.868;4.180;2023-03-13T07:17:33;12.65;;;2.78;;
20669;SDS011;10494;50.868;4.180;2023-03-13T07:19:59;12.57;;;3.33;;
20669;SDS011;10494;50.868;4.180;2023-03-13T07:22:25;12.93;;;3.50;;
20669;SDS011;10494;50.868;4.180;2023-03-13T07:24:50;9.82;;;3.17;;
20669;SDS011;10494;50.868;4.180;2023-03-13T07:27:16;12.48;;;3.33;;
20669;SDS011;10494;50.868;4.180;2023-03-13T07:29:44;10.88;;;3.25;;
20669;SDS011;10494;50.868;4.180;2023-03-13T07:32:10;13.50;;;4.28;;
20669;SDS011;10494;50.868;4.180;2023-03-13T07:34:36;7.93;;;2.95;;
20669;SDS011;10494;50.868;4.180;2023-03-13T07:37:01;8.50;;;3.42;;
20669;SDS011;10494;50.868;4.180;2023-03-13T07:39:27;10.15;;;2.72;;
20669;SDS011;10494;50.868;4.180;2023-03-13T07:41:58;6.50;;;3.03;;
20669;SDS011;10494;50.868;4.180;2023-03-13T07:44:24;10.80;;;3.08;;
20669;SDS011;10494;50.868;4.180;2023-03-13T07:46:49;11.27;;;3.33;;
20669;SDS011;10494;50.868;4.180;2023-03-13T07:49:15;7.70;;;3.42;;
20669;SDS011;10494;50.868;4.180;2023-03-13T07:51:40;7.95;;;3.50;;
20669;SDS011;10494;50.868;4.180;2023-03-13T07:54:06;6.95;;;2.90;;
20669;SDS011;10494;50.868;4.180;2023-03-13T07:56:32;9.63;;;2.85;;
20669;SDS011;10494;50.868;4.180;2023-03-13T07:58:57;12.27;;;3.20;;
20669;SDS011;10494;50.868;4.180;2023-03-13T08:01:24;9.02;;;3.00;;
20669;SDS011;10494;50.868;4.180;2023-03-13T08:03:51;9.10;;;2.88;;
20669;SDS011;10494;50.868;4.180;2023-03-13T08:06:20;10.77;;;3.08;;
20669;SDS011;10494;50.868;4.180;2023-03-13T08:08:47;11.20;;;2.95;;
20669;SDS011;10494;50.868;4.180;2023-03-13T08:11:15;11.32;;;3.67;;
20669;SDS011;10494;50.868;4.180;2023-03-13T08:13:45;8.98;;;2.95;;
20669;SDS011;10494;50.868;4.180;2023-03-13T08:16:12;11.80;;;2.88;;
20669;SDS011;10494;50.868;4.180;2023-03-13T08:18:40;7.53;;;2.85;;
20669;SDS011;10494;50.868;4.180;2023-03-13T08:21:09;6.20;;;3.08;;
20669;SDS011;10494;50.868;4.180;2023-03-13T08:23:38;8.50;;;2.80;;
20669;SDS011;10494;50.868;4.180;2023-03-13T08:26:08;4.25;;;2.53;;
20669;SDS011;10494;50.868;4.180;2023-03-13T08:28:34;7.03;;;3.58;;
20669;SDS011;10494;50.868;4.180;2023-03-13T08:31:11;12.82;;;2.88;;
20669;SDS011;10494;50.868;4.180;2023-03-13T08:33:45;7.75;;;2.88;;
20669;SDS011;10494;50.868;4.180;2023-03-13T08:38:42;8.15;;;3.10;;
20669;SDS011;10494;50.868;4.180;2023-03-13T08:41:09;7.60;;;3.05;;
20669;SDS011;10494;50.868;4.180;2023-03-13T08:43:35;7.97;;;3.03;;
20669;SDS011;10494;50.868;4.180;2023-03-13T08:46:01;7.30;;;3.10;;
20669;SDS011;10494;50.868;4.180;2023-03-13T08:48:27;19.05;;;3.50;;
20669;SDS011;10494;50.868;4.180;2023-03-13T08:51:00;6.30;;;2.55;;
20669;SDS011;10494;50.868;4.180;2023-03-13T08:53:36;6.45;;;2.70;;
20669;SDS011;10494;50.868;4.180;2023-03-13T08:56:03;8.55;;;2.80;;
20669;SDS011;10494;50.868;4.180;2023-03-13T08:58:29;9.35;;;2.75;;
20669;SDS011;10494;50.868;4.180;2023-03-13T09:01:00;10.13;;;2.92;;
20669;SDS011;10494;50.868;4.180;2023-03-13T09:03:30;5.57;;;2.50;;
20669;SDS011;10494;50.868;4.180;2023-03-13T09:05:56;12.38;;;3.05;;
20669;SDS011;10494;50.868;4.180;2023-03-13T09:08:23;5.60;;;2.67;;
20669;SDS011;10494;50.868;4.180;2023-03-13T09:10:55;11.38;;;3.10;;
20669;SDS011;10494;50.868;4.180;2023-03-13T09:13:26;7.82;;;2.53;;
20669;SDS011;10494;50.868;4.180;2023-03-13T09:15:53;8.07;;;2.50;;
20669;SDS011;10494;50.868;4.180;2023-03-13T09:18:23;9.45;;;2.88;;
20669;SDS011;10494;50.868;4.180;2023-03-13T09:20:49;5.88;;;2.70;;
20669;SDS011;10494;50.868;4.180;2023-03-13T09:23:16;11.65;;;3.05;;
20669;SDS011;10494;50.868;4.180;2023-03-13T09:25:42;7.22;;;2.60;;
20669;SDS011;10494;50.868;4.180;2023-03-13T09:28:08;5.85;;;2.42;;
20669;SDS011;10494;50.868;4.180;2023-03-13T09:30:33;8.85;;;2.83;;
20669;SDS011;10494;50.868;4.180;2023-03-13T09:32:59;7.10;;;2.75;;
20669;SDS011;10494;50.868;4.180;2023-03-13T09:35:25;7.30;;;2.33;;
20669;SDS011;10494;50.868;4.180;2023-03-13T09:37:50;4.15;;;1.92;;
20669;SDS011;10494;50.868;4.180;2023-03-13T09:40:17;6.50;;;2.58;;
20669;SDS011;10494;50.868;4.180;2023-03-13T09:45:17;10.50;;;2.50;;
20669;SDS011;10494;50.868;4.180;2023-03-13T09:48:00;9.52;;;2.42;;
20669;SDS011;10494;50.868;4.180;2023-03-13T09:50:28;5.35;;;2.20;;
20669;SDS011;10494;50.868;4.180;2023-03-13T09:53:12;5.35;;;2.47;;
20669;SDS011;10494;50.868;4.180;2023-03-13T09:55:42;7.07;;;2.20;;
20669;SDS011;10494;50.868;4.180;2023-03-13T10:00:56;4.05;;;2.00;;
20669;SDS011;10494;50.868;4.180;2023-03-13T10:03:27;5.75;;;2.17;;
20669;SDS011;10494;50.868;4.180;2023-03-13T10:06:04;4.68;;;1.92;;
20669;SDS011;10494;50.868;4.180;2023-03-13T10:08:38;4.80;;;1.75;;
20669;SDS011;10494;50.868;4.180;2023-03-13T10:11:06;6.88;;;2.15;;
20669;SDS011;10494;50.868;4.180;2023-03-13T10:16:10;5.90;;;1.80;;
20669;SDS011;10494;50.868;4.180;2023-03-13T10:18:46;4.57;;;1.98;;
20669;SDS011;10494;50.868;4.180;2023-03-13T10:21:20;9.50;;;2.45;;
20669;SDS011;10494;50.868;4.180;2023-03-13T10:23:52;3.47;;;1.73;;
20669;SDS011;10494;50.868;4.180;2023-03-13T10:26:26;3.25;;;1.90;;
20669;SDS011;10494;50.868;4.180;2023-03-13T10:28:54;7.43;;;1.95;;
20669;SDS011;10494;50.868;4.180;2023-03-13T10:34:10;6.63;;;1.77;;
20669;SDS011;10494;50.868;4.180;2023-03-13T10:36:44;1.95;;;1.65;;
20669;SDS011;10494;50.868;4.180;2023-03-13T10:39:13;3.38;;;1.88;;
20669;SDS011;10494;50.868;4.180;2023-03-13T10:41:40;5.45;;;1.75;;
20669;SDS011;10494;50.868;4.180;2023-03-13T10:44:13;4.47;;;2.08;;
20669;SDS011;10494;50.868;4.180;2023-03-13T10:46:41;3.88;;;1.95;;
20669;SDS011;10494;50.868;4.180;2023-03-13T10:49:12;5.55;;;1.92;;
20669;SDS011;10494;50.868;4.180;2023-03-13T10:51:53;5.40;;;2.05;;
20669;SDS011;10494;50.868;4.180;2023-03-13T10:54:31;3.63;;;1.92;;
20669;SDS011;10494;50.868;4.180;2023-03-13T10:59:47;5.20;;;1.90;;
20669;SDS011;10494;50.868;4.180;2023-03-13T11:02:31;5.82;;;1.90;;
20669;SDS011;10494;50.868;4.180;2023-03-13T11:04:58;4.28;;;2.13;;
20669;SDS011;10494;50.868;4.180;2023-03-13T11:07:37;3.47;;;1.73;;
20669;SDS011;10494;50.868;4.180;2023-03-13T11:12:47;4.03;;;1.85;;
20669;SDS011;10494;50.868;4.180;2023-03-13T11:15:22;5.07;;;1.60;;
20669;SDS011;10494;50.868;4.180;2023-03-13T11:20:39;6.40;;;1.70;;
20669;SDS011;10494;50.868;4.180;2023-03-13T11:26:05;5.43;;;1.38;;
20669;SDS011;10494;50.868;4.180;2023-03-13T11:31:28;5.78;;;1.27;;
20669;SDS011;10494;50.868;4.180;2023-03-13T11:36:41;7.50;;;1.67;;
20669;SDS011;10494;50.868;4.180;2023-03-13T11:48:13;4.25;;;1.45;;
20669;SDS011;10494;50.868;4.180;2023-03-13T11:50:25;7.70;;;1.70;;
20669;SDS011;10494;50.868;4.180;2023-03-13T11:55:48;3.60;;;1.42;;
20669;SDS011;10494;50.868;4.180;2023-03-13T12:01:02;4.97;;;1.42;;
20669;SDS011;10494;50.868;4.180;2023-03-13T12:03:37;3.45;;;1.52;;
20669;SDS011;10494;50.868;4.180;2023-03-13T12:06:04;6.20;;;1.60;;
20669;SDS011;10494;50.868;4.180;2023-03-13T12:08:37;3.15;;;1.52;;
20669;SDS011;10494;50.868;4.180;2023-03-13T12:13:54;2.55;;;1.17;;
20669;SDS011;10494;50.868;4.180;2023-03-13T12:16:43;3.38;;;1.38;;
20669;SDS011;10494;50.868;4.180;2023-03-13T12:19:14;5.32;;;1.20;;
20669;SDS011;10494;50.868;4.180;2023-03-13T12:21:48;4.50;;;1.40;;
20669;SDS011;10494;50.868;4.180;2023-03-13T12:24:33;5.18;;;1.38;;
20669;SDS011;10494;50.868;4.180;2023-03-13T12:27:20;3.08;;;1.15;;
20669;SDS011;10494;50.868;4.180;2023-03-13T12:32:46;5.07;;;1.25;;
20669;SDS011;10494;50.868;4.180;2023-03-13T12:35:27;7.22;;;1.48;;
20669;SDS011;10494;50.868;4.180;2023-03-13T12:38:16;4.75;;;1.33;;
20669;SDS011;10494;50.868;4.180;2023-03-13T12:43:38;2.80;;;1.25;;
20669;SDS011;10494;50.868;4.180;2023-03-13T12:54:36;6.70;;;1.33;;
20669;SDS011;10494;50.868;4.180;2023-03-13T12:57:24;5.78;;;1.77;;
20669;SDS011;10494;50.868;4.180;2023-03-13T13:00:20;3.75;;;1.20;;
20669;SDS011;10494;50.868;4.180;2023-03-13T13:05:58;5.22;;;1.40;;
20669;SDS011;10494;50.868;4.180;2023-03-13T13:08:27;3.55;;;1.40;;
20669;SDS011;10494;50.868;4.180;2023-03-13T13:13:59;3.70;;;1.30;;
20669;SDS011;10494;50.868;4.180;2023-03-13T13:16:25;4.00;;;1.73;;
20669;SDS011;10494;50.868;4.180;2023-03-13T13:18:52;6.70;;;1.60;;
20669;SDS011;10494;50.868;4.180;2023-03-13T13:21:19;4.55;;;1.67;;
20669;SDS011;10494;50.868;4.180;2023-03-13T13:23:50;6.78;;;1.60;;
20669;SDS011;10494;50.868;4.180;2023-03-13T13:28:59;6.07;;;1.70;;
20669;SDS011;10494;50.868;4.180;2023-03-13T13:37:02;4.45;;;1.35;;
20669;SDS011;10494;50.868;4.180;2023-03-13T13:39:51;2.53;;;1.13;;
20669;SDS011;10494;50.868;4.180;2023-03-13T13:47:40;3.67;;;1.33;;
20669;SDS011;10494;50.868;4.180;2023-03-13T13:50:23;2.60;;;1.60;;
20669;SDS011;10494;50.868;4.180;2023-03-13T13:52:50;4.70;;;1.42;;
20669;SDS011;10494;50.868;4.180;2023-03-13T13:58:03;5.43;;;1.50;;
20669;SDS011;10494;50.868;4.180;2023-03-13T14:00:54;4.97;;;1.42;;
20669;SDS011;10494;50.868;4.180;2023-03-13T14:03:31;9.73;;;1.83;;
20669;SDS011;10494;50.868;4.180;2023-03-13T14:06:01;10.88;;;1.95;;
20669;SDS011;10494;50.868;4.180;2023-03-13T14:08:39;7.45;;;1.92;;
20669;SDS011;10494;50.868;4.180;2023-03-13T14:11:17;7.53;;;1.67;;
20669;SDS011;10494;50.868;4.180;2023-03-13T14:16:47;8.23;;;1.63;;
20669;SDS011;10494;50.868;4.180;2023-03-13T14:19:34;5.50;;;1.45;;
20669;SDS011;10494;50.868;4.180;2023-03-13T14:22:05;7.95;;;1.55;;
20669;SDS011;10494;50.868;4.180;2023-03-13T14:24:33;4.68;;;1.60;;
20669;SDS011;10494;50.868;4.180;2023-03-13T14:27:00;13.18;;;2.42;;
20669;SDS011;10494;50.868;4.180;2023-03-13T14:29:26;6.05;;;1.58;;
20669;SDS011;10494;50.868;4.180;2023-03-13T14:31:56;5.20;;;1.77;;
20669;SDS011;10494;50.868;4.180;2023-03-13T14:34:23;10.60;;;2.33;;
20669;SDS011;10494;50.868;4.180;2023-03-13T14:40:03;9.85;;;2.05;;
20669;SDS011;10494;50.868;4.180;2023-03-13T14:44:38;7.15;;;1.65;;
20669;SDS011;10494;50.868;4.180;2023-03-13T14:47:10;4.95;;;1.45;;
20669;SDS011;10494;50.868;4.180;2023-03-13T14:49:57;9.75;;;1.83;;
20669;SDS011;10494;50.868;4.180;2023-03-13T14:52:34;8.20;;;1.80;;
20669;SDS011;10494;50.868;4.180;2023-03-13T14:55:02;11.48;;;1.98;;
20669;SDS011;10494;50.868;4.180;2023-03-13T14:57:32;8.25;;;2.10;;
20669;SDS011;10494;50.868;4.180;2023-03-13T15:03:10;6.90;;;2.08;;
20669;SDS011;10494;50.868;4.180;2023-03-13T15:08:29;8.57;;;1.70;;
20669;SDS011;10494;50.868;4.180;2023-03-13T15:10:55;6.45;;;1.92;;
20669;SDS011;10494;50.868;4.180;2023-03-13T15:13:25;8.27;;;1.73;;
20669;SDS011;10494;50.868;4.180;2023-03-13T15:15:57;8.57;;;1.58;;
20669;SDS011;10494;50.868;4.180;2023-03-13T15:18:24;9.40;;;2.45;;
20669;SDS011;10494;50.868;4.180;2023-03-13T15:20:54;16.23;;;2.25;;
20669;SDS011;10494;50.868;4.180;2023-03-13T15:23:21;6.63;;;1.95;;
20669;SDS011;10494;50.868;4.180;2023-03-13T15:25:47;5.57;;;1.40;;
20669;SDS011;10494;50.868;4.180;2023-03-13T15:28:14;9.70;;;2.17;;
20669;SDS011;10494;50.868;4.180;2023-03-13T15:30:42;9.05;;;1.92;;
20669;SDS011;10494;50.868;4.180;2023-03-13T15:33:15;9.50;;;2.03;;
20669;SDS011;10494;50.868;4.180;2023-03-13T15:35:45;12.45;;;2.40;;
20669;SDS011;10494;50.868;4.180;2023-03-13T15:38:13;5.45;;;1.65;;
20669;SDS011;10494;50.868;4.180;2023-03-13T15:40:59;7.38;;;1.92;;
20669;SDS011;10494;50.868;4.180;2023-03-13T15:43:24;10.68;;;2.33;;
20669;SDS011;10494;50.868;4.180;2023-03-13T15:45:51;10.93;;;2.22;;
20669;SDS011;10494;50.868;4.180;2023-03-13T15:48:17;10.15;;;1.80;;
20669;SDS011;10494;50.868;4.180;2023-03-13T15:50:48;8.57;;;1.90;;
20669;SDS011;10494;50.868;4.180;2023-03-13T15:53:18;6.15;;;2.25;;
20669;SDS011;10494;50.868;4.180;2023-03-13T15:55:49;6.40;;;1.77;;
20669;SDS011;10494;50.868;4.180;2023-03-13T15:58:16;7.38;;;2.15;;
20669;SDS011;10494;50.868;4.180;2023-03-13T16:00:43;11.15;;;2.10;;
20669;SDS011;10494;50.868;4.180;2023-03-13T16:03:14;7.50;;;2.10;;
20669;SDS011;10494;50.868;4.180;2023-03-13T16:05:42;21.73;;;2.78;;
20669;SDS011;10494;50.868;4.180;2023-03-13T16:08:15;11.18;;;2.70;;
20669;SDS011;10494;50.868;4.180;2023-03-13T16:10:45;11.75;;;2.30;;
20669;SDS011;10494;50.868;4.180;2023-03-13T16:13:11;7.32;;;2.13;;
20669;SDS011;10494;50.868;4.180;2023-03-13T16:15:37;5.90;;;2.15;;
20669;SDS011;10494;50.868;4.180;2023-03-13T16:18:03;11.07;;;2.15;;
20669;SDS011;10494;50.868;4.180;2023-03-13T16:20:30;6.25;;;2.08;;
20669;SDS011;10494;50.868;4.180;2023-03-13T16:22:57;13.05;;;3.22;;
20669;SDS011;10494;50.868;4.180;2023-03-13T16:25:23;10.13;;;2.03;;
20669;SDS011;10494;50.868;4.180;2023-03-13T16:27:49;8.15;;;2.10;;
20669;SDS011;10494;50.868;4.180;2023-03-13T16:30:18;8.07;;;2.60;;
20669;SDS011;10494;50.868;4.180;2023-03-13T16:32:47;8.40;;;2.40;;
20669;SDS011;10494;50.868;4.180;2023-03-13T16:35:12;10.38;;;2.47;;
20669;SDS011;10494;50.868;4.180;2023-03-13T16:37:38;9.68;;;2.20;;